createdAt,value
2023-03-03T00:01:09.188Z,90.87
2023-03-03T00:03:37.064Z,89.78
2023-03-03T00:06:06.365Z,89.55
2023-03-03T00:08:34.091Z,90.70
2023-03-03T00:11:06.155Z,89.86
2023-03-03T00:13:34.935Z,90.80
2023-03-03T00:16:14.726Z,89.79
2023-03-03T00:18:46.829Z,89.73
2023-03-03T00:21:26.029Z,88.84
2023-03-03T00:23:55.163Z,89.42
2023-03-03T00:26:30.468Z,89.37
2023-03-03T00:28:58.231Z,89.22
2023-03-03T00:31:31.987Z,90.24
2023-03-03T00:34:12.912Z,90.24
2023-03-03T00:36:42.215Z,89.43
2023-03-03T00:39:20.402Z,89.98
2023-03-03T00:41:50.580Z,89.73
2023-03-03T00:44:41.233Z,91.88
2023-03-03T00:47:26.443Z,89.39
2023-03-03T00:49:56.074Z,90.22
2023-03-03T00:52:29.726Z,91.92
2023-03-03T00:54:57.445Z,89.49
2023-03-03T00:57:26.576Z,89.35
2023-03-03T00:59:54.837Z,90.06
2023-03-03T01:02:22.906Z,89.69
2023-03-03T01:04:53.288Z,89.36
2023-03-03T01:07:21.105Z,91.15
2023-03-03T01:09:48.850Z,91.01
2023-03-03T01:12:17.071Z,91.40
2023-03-03T01:14:46.311Z,89.22
2023-03-03T01:17:14.083Z,91.22
2023-03-03T01:19:41.852Z,91.01
2023-03-03T01:22:09.661Z,90.74
2023-03-03T01:24:37.660Z,90.27
2023-03-03T01:27:05.504Z,89.62
2023-03-03T01:29:33.306Z,88.45
2023-03-03T01:32:02.457Z,88.75
2023-03-03T01:34:30.209Z,87.84
2023-03-03T01:36:57.939Z,88.76
2023-03-03T01:39:25.693Z,88.20
2023-03-03T01:41:53.516Z,88.31
2023-03-03T01:44:21.360Z,87.40
2023-03-03T01:46:56.110Z,88.03
2023-03-03T01:49:30.134Z,88.86
2023-03-03T01:52:00.938Z,88.25
2023-03-03T01:54:32.223Z,88.72
2023-03-03T01:57:04.229Z,90.56
2023-03-03T01:59:38.278Z,90.26
2023-03-03T02:02:06.470Z,90.49
2023-03-03T02:04:36.312Z,89.15
2023-03-03T02:07:09.925Z,90.30
2023-03-03T02:09:46.051Z,89.63
2023-03-03T02:12:17.888Z,88.37
2023-03-03T02:14:45.913Z,89.55
2023-03-03T02:17:13.891Z,88.81
2023-03-03T02:19:54.252Z,88.66
2023-03-03T02:22:32.756Z,90.88
2023-03-03T02:25:04.049Z,89.84
2023-03-03T02:27:34.790Z,89.71
2023-03-03T02:30:11.885Z,90.22
2023-03-03T02:32:39.632Z,89.35
2023-03-03T02:35:28.347Z,88.67
2023-03-03T02:38:00.624Z,88.44
2023-03-03T02:40:32.981Z,89.00
2023-03-03T02:43:06.064Z,90.00
2023-03-03T02:45:33.785Z,89.33
2023-03-03T02:48:01.493Z,88.92
2023-03-03T02:50:29.216Z,86.49
2023-03-03T02:52:56.907Z,85.73
2023-03-03T02:55:24.694Z,86.76
2023-03-03T02:57:52.408Z,88.03
2023-03-03T03:00:22.279Z,89.80
2023-03-03T03:02:50.097Z,90.22
2023-03-03T03:05:17.896Z,89.61
2023-03-03T03:07:45.677Z,88.80
2023-03-03T03:10:13.397Z,90.02
2023-03-03T03:12:41.156Z,88.70
2023-03-03T03:15:10.436Z,87.33
2023-03-03T03:17:40.162Z,84.95
2023-03-03T03:20:08.459Z,86.79
2023-03-03T03:22:36.418Z,86.33
2023-03-03T03:25:04.141Z,86.66
2023-03-03T03:27:31.862Z,85.00
2023-03-03T03:29:59.675Z,85.60
2023-03-03T03:32:27.448Z,85.26
2023-03-03T03:34:56.624Z,85.73
2023-03-03T03:37:24.320Z,84.60
2023-03-03T03:39:52.099Z,83.14
2023-03-03T03:42:19.892Z,84.74
2023-03-03T03:44:47.749Z,87.25
2023-03-03T03:47:15.459Z,86.75
2023-03-03T03:49:43.158Z,88.54
2023-03-03T03:52:12.286Z,89.91
2023-03-03T03:54:40.063Z,88.77
2023-03-03T03:57:08.366Z,89.07
2023-03-03T03:59:36.137Z,89.84
2023-03-03T04:02:03.941Z,89.69
2023-03-03T04:04:31.876Z,90.46
2023-03-03T04:06:59.634Z,88.72
2023-03-03T04:09:28.772Z,89.97
2023-03-03T04:11:56.484Z,90.17
2023-03-03T04:14:24.220Z,91.10
2023-03-03T04:16:51.996Z,93.57
2023-03-03T04:19:19.905Z,93.71
2023-03-03T04:21:47.637Z,94.09
2023-03-03T04:24:15.391Z,95.40
2023-03-03T04:26:44.461Z,95.37
2023-03-03T04:29:12.447Z,96.58
2023-03-03T04:31:40.183Z,94.33
2023-03-03T04:34:07.948Z,93.65
2023-03-03T04:36:35.692Z,94.57
2023-03-03T04:39:03.430Z,94.86
2023-03-03T04:41:31.310Z,93.27
2023-03-03T04:44:00.432Z,97.58
2023-03-03T04:46:28.324Z,95.06
2023-03-03T04:48:56.950Z,95.70
2023-03-03T04:51:24.967Z,95.11
2023-03-03T04:53:52.759Z,95.38
2023-03-03T04:56:20.516Z,94.23
2023-03-03T04:58:48.247Z,94.79
2023-03-03T05:01:18.610Z,95.12
2023-03-03T05:03:46.691Z,95.46
2023-03-03T05:06:14.455Z,94.99
2023-03-03T05:08:43.183Z,93.01
2023-03-03T05:11:10.953Z,92.79
2023-03-03T05:13:38.892Z,92.74
2023-03-03T05:16:07.693Z,92.32
2023-03-03T05:18:37.222Z,92.83
2023-03-03T05:21:05.492Z,92.62
2023-03-03T05:23:33.279Z,93.26
2023-03-03T05:26:01.042Z,92.28
2023-03-03T05:28:29.557Z,91.91
2023-03-03T05:30:57.490Z,92.01
2023-03-03T05:33:25.319Z,93.44
2023-03-03T05:35:57.612Z,94.66
2023-03-03T05:38:26.103Z,92.64
2023-03-03T05:40:54.711Z,93.43
2023-03-03T05:43:22.534Z,93.41
2023-03-03T05:45:55.935Z,92.20
2023-03-03T05:48:23.783Z,92.87
2023-03-03T05:50:51.499Z,92.22
2023-03-03T05:53:20.783Z,95.01
2023-03-03T05:55:48.493Z,96.34
2023-03-03T05:58:16.235Z,96.46
2023-03-03T06:00:44.016Z,95.77
2023-03-03T06:03:11.829Z,96.74
2023-03-03T06:05:39.567Z,95.70
2023-03-03T06:08:07.336Z,96.37
2023-03-03T06:10:36.569Z,98.34
2023-03-03T06:13:04.540Z,98.76
2023-03-03T06:15:32.398Z,96.28
2023-03-03T06:18:00.177Z,97.91
2023-03-03T06:20:28.001Z,97.23
2023-03-03T06:22:55.789Z,97.18
2023-03-03T06:25:23.560Z,95.35
2023-03-03T06:27:52.677Z,95.24
2023-03-03T06:30:20.740Z,94.50
2023-03-03T06:32:48.559Z,95.90
2023-03-03T06:35:16.514Z,94.54
2023-03-03T06:37:44.232Z,94.88
2023-03-03T06:40:13.157Z,96.30
2023-03-03T06:42:40.929Z,94.88
2023-03-03T06:45:11.249Z,95.29
2023-03-03T06:47:38.997Z,94.03
2023-03-03T06:50:07.898Z,95.53
2023-03-03T06:52:35.761Z,96.28
2023-03-03T06:55:13.064Z,96.03
2023-03-03T06:57:41.881Z,96.18
2023-03-03T07:00:18.353Z,97.66
2023-03-03T07:02:46.140Z,98.80
2023-03-03T07:05:17.576Z,97.24
2023-03-03T07:07:45.760Z,96.74
2023-03-03T07:10:25.245Z,94.44
2023-03-03T07:12:53.188Z,95.94
2023-03-03T07:15:24.735Z,97.46
2023-03-03T07:17:58.150Z,97.26
2023-03-03T07:20:33.578Z,98.04
2023-03-03T07:23:01.864Z,97.90
2023-03-03T07:25:32.857Z,97.25
2023-03-03T07:28:12.568Z,97.79
2023-03-03T07:30:43.141Z,98.92
2023-03-03T07:33:22.266Z,98.07
2023-03-03T07:35:50.276Z,98.35
2023-03-03T07:38:30.816Z,99.08
2023-03-03T07:41:00.650Z,99.18
2023-03-03T07:43:38.755Z,98.39
2023-03-03T07:46:24.860Z,98.16
2023-03-03T07:48:53.697Z,96.22
2023-03-03T07:51:25.368Z,97.91
2023-03-03T07:53:54.943Z,97.38
2023-03-03T07:56:29.902Z,96.94
2023-03-03T07:58:59.465Z,95.49
2023-03-03T08:01:40.380Z,95.00
2023-03-03T08:04:19.386Z,94.90
2023-03-03T08:06:50.431Z,96.43
2023-03-03T08:09:38.104Z,96.18
2023-03-03T08:12:37.236Z,96.36
2023-03-03T08:15:32.710Z,96.32
2023-03-03T08:18:02.961Z,96.89
2023-03-03T08:20:53.125Z,95.54
2023-03-03T08:23:21.920Z,95.20
2023-03-03T08:25:51.299Z,93.19
2023-03-03T08:28:19.841Z,92.35
2023-03-03T08:30:48.561Z,93.77
2023-03-03T08:33:19.110Z,92.94
2023-03-03T08:35:48.317Z,91.97
2023-03-03T08:38:18.474Z,93.12
2023-03-03T08:40:46.889Z,91.82
2023-03-03T08:43:17.288Z,93.63
2023-03-03T08:45:47.279Z,93.47
2023-03-03T08:48:15.434Z,92.40
2023-03-03T08:50:45.551Z,93.64
2023-03-03T08:53:14.763Z,94.48
2023-03-03T08:55:43.030Z,93.91
2023-03-03T08:58:10.803Z,93.69
2023-03-03T09:00:38.625Z,93.97
2023-03-03T09:03:07.178Z,93.00
2023-03-03T09:05:36.092Z,92.41
2023-03-03T09:08:06.091Z,93.20
2023-03-03T09:10:35.477Z,92.73
2023-03-03T09:13:09.472Z,91.53
2023-03-03T09:15:39.447Z,90.73
2023-03-03T09:18:15.920Z,92.48
2023-03-03T09:20:45.297Z,90.08
2023-03-03T09:23:36.084Z,90.89
2023-03-03T09:26:28.099Z,90.75
2023-03-03T09:28:59.733Z,90.10
2023-03-03T09:31:33.868Z,90.22
2023-03-03T09:34:02.128Z,90.59
2023-03-03T09:36:31.403Z,88.91
2023-03-03T09:39:01.592Z,88.19
2023-03-03T09:41:56.112Z,85.79
2023-03-03T09:44:52.467Z,86.49
2023-03-03T09:47:40.509Z,88.60
2023-03-03T09:50:20.473Z,87.33
2023-03-03T09:52:55.205Z,86.58
2023-03-03T09:55:40.583Z,85.49
2023-03-03T09:58:21.550Z,83.73
2023-03-03T10:01:00.632Z,84.95
2023-03-03T10:03:53.159Z,85.11
2023-03-03T10:06:26.466Z,84.25
2023-03-03T10:09:04.966Z,83.32
2023-03-03T10:11:43.027Z,83.42
2023-03-03T10:14:35.257Z,83.00
2023-03-03T10:17:18.517Z,84.42
2023-03-03T10:19:54.976Z,82.74
2023-03-03T10:22:32.559Z,81.83
2023-03-03T10:25:09.803Z,82.09
2023-03-03T10:27:58.707Z,81.82
2023-03-03T10:30:46.149Z,81.87
2023-03-03T10:33:27.982Z,81.82
2023-03-03T10:36:19.612Z,81.00
2023-03-03T10:38:57.313Z,80.00
2023-03-03T10:41:43.206Z,80.55
2023-03-03T10:44:29.312Z,81.59
2023-03-03T10:47:10.180Z,81.33
2023-03-03T10:49:51.127Z,76.96
2023-03-03T10:52:33.852Z,79.33
2023-03-03T10:55:20.929Z,77.60
2023-03-03T10:58:04.016Z,75.87
2023-03-03T11:00:39.921Z,76.72
2023-03-03T11:03:31.583Z,75.20
2023-03-03T11:06:02.533Z,73.58
2023-03-03T11:08:40.305Z,72.83
2023-03-03T11:11:16.555Z,72.23
2023-03-03T11:13:49.829Z,71.42
2023-03-03T11:16:27.750Z,71.32
2023-03-03T11:19:09.523Z,70.80
2023-03-03T11:21:47.318Z,70.96
2023-03-03T11:24:28.155Z,69.77
2023-03-03T11:27:14.208Z,69.28
2023-03-03T11:29:56.026Z,72.31
2023-03-03T11:32:34.755Z,69.43
2023-03-03T11:35:17.803Z,69.22
2023-03-03T11:37:50.984Z,66.87
2023-03-03T11:40:23.426Z,68.78
2023-03-03T11:43:01.497Z,72.04
2023-03-03T11:45:35.218Z,69.46
2023-03-03T11:48:10.184Z,68.26
2023-03-03T11:50:43.252Z,65.61
2023-03-03T11:53:27.775Z,66.41
2023-03-03T11:56:01.172Z,64.16
2023-03-03T11:58:31.926Z,62.81
2023-03-03T12:01:09.530Z,62.87
2023-03-03T12:03:44.567Z,63.86
2023-03-03T12:06:25.864Z,64.31
2023-03-03T12:09:16.355Z,62.13
2023-03-03T12:11:51.116Z,61.21
2023-03-03T12:14:37.047Z,60.93
2023-03-03T12:17:12.235Z,61.12
2023-03-03T12:19:53.659Z,60.97
2023-03-03T12:22:33.514Z,60.15
2023-03-03T12:25:31.314Z,60.09
2023-03-03T12:28:05.576Z,60.90
2023-03-03T12:30:58.176Z,60.83
2023-03-03T12:33:38.900Z,59.46
2023-03-03T12:36:24.199Z,60.10
2023-03-03T12:38:57.612Z,58.93
2023-03-03T12:41:31.035Z,59.70
2023-03-03T12:44:06.492Z,59.32
2023-03-03T12:46:45.575Z,57.98
2023-03-03T12:49:14.124Z,56.25
2023-03-03T12:52:00.005Z,57.75
2023-03-03T12:54:47.633Z,59.68
2023-03-03T12:57:27.384Z,57.93
2023-03-03T13:00:16.815Z,56.14
2023-03-03T13:02:52.503Z,57.68
2023-03-03T13:05:28.373Z,57.37
2023-03-03T13:08:08.001Z,56.67
2023-03-03T13:10:42.860Z,56.43
2023-03-03T13:13:17.752Z,55.96
2023-03-03T13:15:55.871Z,55.58
2023-03-03T13:18:35.148Z,55.16
2023-03-03T13:21:09.326Z,54.48
2023-03-03T13:23:48.344Z,53.52
2023-03-03T13:26:21.205Z,54.06
2023-03-03T13:29:00.745Z,54.16
2023-03-03T13:31:34.838Z,52.80
2023-03-03T13:34:03.399Z,53.20
2023-03-03T13:36:35.851Z,53.53
2023-03-03T13:39:19.240Z,52.45
2023-03-03T13:41:52.119Z,52.98
2023-03-03T13:44:25.807Z,52.78
2023-03-03T13:47:03.977Z,52.07
2023-03-03T13:49:47.686Z,52.27
2023-03-03T13:52:22.225Z,52.42
2023-03-03T13:55:21.973Z,53.04
2023-03-03T13:58:01.062Z,51.91
2023-03-03T14:00:38.609Z,50.93
2023-03-03T14:03:37.199Z,51.51
2023-03-03T14:06:09.196Z,51.98
2023-03-03T14:08:55.662Z,52.87
2023-03-03T14:11:30.159Z,52.52
2023-03-03T14:14:08.631Z,51.60
2023-03-03T14:16:50.777Z,52.42
2023-03-03T14:19:24.733Z,51.08
2023-03-03T14:22:06.198Z,51.67
2023-03-03T14:24:55.386Z,52.13
2023-03-03T14:27:28.040Z,50.56
2023-03-03T14:29:55.808Z,50.24
2023-03-03T14:32:43.133Z,50.04
2023-03-03T14:35:20.158Z,50.63
2023-03-03T14:37:48.400Z,51.48
2023-03-03T14:40:20.829Z,50.41
2023-03-03T14:42:55.703Z,50.43
2023-03-03T14:45:32.563Z,51.08
2023-03-03T14:48:01.906Z,50.33
2023-03-03T14:50:36.353Z,51.36
2023-03-03T14:53:13.970Z,51.07
2023-03-03T14:55:43.497Z,51.36
2023-03-03T14:58:31.846Z,50.44
2023-03-03T15:01:15.284Z,50.14
2023-03-03T15:03:49.192Z,50.34
2023-03-03T15:06:35.507Z,50.00
2023-03-03T15:09:25.761Z,50.22
2023-03-03T15:11:54.756Z,51.36
2023-03-03T15:14:31.232Z,50.92
2023-03-03T15:17:19.310Z,50.02
2023-03-03T15:19:57.509Z,50.68
2023-03-03T15:22:40.799Z,48.96
2023-03-03T15:25:18.749Z,50.05
2023-03-03T15:27:52.566Z,48.69
2023-03-03T15:30:28.165Z,49.44
2023-03-03T15:33:05.073Z,49.51
2023-03-03T15:35:45.789Z,49.52
2023-03-03T15:38:26.259Z,48.17
2023-03-03T15:41:01.695Z,49.21
2023-03-03T15:43:37.572Z,50.03
2023-03-03T15:46:22.306Z,49.53
2023-03-03T15:49:06.439Z,50.74
2023-03-03T15:52:03.211Z,48.88
2023-03-03T15:54:43.951Z,49.75
2023-03-03T15:57:22.511Z,48.42
2023-03-03T16:00:08.134Z,49.21
2023-03-03T16:02:50.086Z,49.83
2023-03-03T16:05:23.618Z,48.38
2023-03-03T16:08:01.871Z,47.49
2023-03-03T16:10:41.184Z,47.12
2023-03-03T16:13:23.972Z,47.64
2023-03-03T16:16:05.415Z,47.66
2023-03-03T16:18:44.438Z,47.80
2023-03-03T16:21:24.684Z,48.32
2023-03-03T16:23:53.550Z,48.52
2023-03-03T16:26:48.825Z,47.67
2023-03-03T16:29:31.352Z,47.73
2023-03-03T16:32:04.654Z,48.00
2023-03-03T16:34:38.194Z,47.75
2023-03-03T16:37:17.188Z,47.97
2023-03-03T16:39:55.195Z,48.79
2023-03-03T16:42:28.811Z,48.76
2023-03-03T16:45:13.082Z,49.29
2023-03-03T16:47:55.930Z,49.38
2023-03-03T16:50:32.236Z,49.76
2023-03-03T16:53:08.891Z,50.49
2023-03-03T16:55:39.535Z,50.08
2023-03-03T16:58:20.867Z,50.31
2023-03-03T17:00:55.894Z,50.17
2023-03-03T17:03:50.249Z,51.02
2023-03-03T17:06:24.650Z,51.07
2023-03-03T17:09:26.704Z,51.41
2023-03-03T17:12:09.993Z,52.54
2023-03-03T17:15:00.090Z,52.29
2023-03-03T17:17:37.703Z,52.83
2023-03-03T17:20:19.051Z,53.09
2023-03-03T17:23:02.466Z,53.42
2023-03-03T17:25:38.440Z,53.70
2023-03-03T17:28:19.501Z,54.59
2023-03-03T17:30:54.274Z,55.39
2023-03-03T17:33:42.050Z,55.33
2023-03-03T17:36:22.599Z,55.77
2023-03-03T17:39:10.469Z,57.11
2023-03-03T17:41:43.459Z,58.03
2023-03-03T17:44:17.169Z,58.07
2023-03-03T17:46:48.664Z,58.18
2023-03-03T17:49:55.028Z,58.47
2023-03-03T17:52:52.443Z,59.45
2023-03-03T17:55:47.767Z,58.54
2023-03-03T17:58:42.674Z,59.08
2023-03-03T18:01:21.278Z,59.60
2023-03-03T18:04:14.757Z,60.09
2023-03-03T18:07:12.670Z,62.39
2023-03-03T18:09:57.646Z,63.71
2023-03-03T18:12:38.395Z,67.56
2023-03-03T18:15:43.388Z,67.58
2023-03-03T18:18:25.432Z,67.13
2023-03-03T18:21:01.696Z,66.58
2023-03-03T18:23:41.860Z,68.03
2023-03-03T18:26:33.452Z,69.12
2023-03-03T18:29:22.176Z,71.81
2023-03-03T18:32:05.607Z,70.80
2023-03-03T18:34:38.952Z,70.79
2023-03-03T18:37:11.887Z,74.29
2023-03-03T18:39:45.763Z,71.61
2023-03-03T18:42:37.665Z,71.54
2023-03-03T18:45:51.437Z,72.85
2023-03-03T18:48:20.152Z,73.99
2023-03-03T18:50:49.773Z,73.44
2023-03-03T18:53:25.213Z,72.98
2023-03-03T18:55:54.667Z,71.95
2023-03-03T18:58:38.592Z,72.67
2023-03-03T19:01:41.780Z,73.88
2023-03-03T19:04:19.695Z,72.54
2023-03-03T19:07:18.869Z,71.90
2023-03-03T19:09:57.250Z,72.54
2023-03-03T19:12:48.488Z,74.24
2023-03-03T19:15:48.053Z,74.91
2023-03-03T19:18:19.595Z,74.82
2023-03-03T19:20:50.518Z,73.33
2023-03-03T19:23:20.196Z,74.69
2023-03-03T19:26:07.931Z,74.01
2023-03-03T19:28:43.590Z,74.95
2023-03-03T19:31:19.367Z,75.73
2023-03-03T19:33:56.916Z,74.95
2023-03-03T19:36:44.410Z,74.73
2023-03-03T19:39:49.280Z,74.72
2023-03-03T19:42:31.115Z,74.95
2023-03-03T19:45:17.667Z,76.53
2023-03-03T19:47:49.190Z,77.81
2023-03-03T19:50:31.036Z,75.13
2023-03-03T19:53:08.606Z,78.88
2023-03-03T19:55:51.710Z,78.15
2023-03-03T19:58:30.238Z,77.69
2023-03-03T20:01:08.382Z,80.07
2023-03-03T20:04:17.520Z,81.04
2023-03-03T20:06:56.131Z,81.66
2023-03-03T20:09:31.900Z,80.89
2023-03-03T20:12:23.244Z,81.27
2023-03-03T20:14:57.868Z,80.62
2023-03-03T20:17:55.264Z,81.43
2023-03-03T20:20:47.743Z,81.32
2023-03-03T20:23:22.930Z,79.95
2023-03-03T20:25:56.621Z,80.15
2023-03-03T20:28:56.225Z,79.96
2023-03-03T20:31:32.641Z,78.55
2023-03-03T20:34:10.484Z,79.45
2023-03-03T20:36:49.723Z,80.33
2023-03-03T20:39:29.520Z,80.65
2023-03-03T20:42:08.499Z,81.68
2023-03-03T20:44:49.872Z,82.38
2023-03-03T20:47:30.072Z,82.85
2023-03-03T20:50:15.582Z,85.77
2023-03-03T20:52:55.357Z,83.42
2023-03-03T20:55:32.055Z,83.67
2023-03-03T20:58:06.826Z,83.50
2023-03-03T21:00:43.646Z,81.49
2023-03-03T21:03:20.068Z,82.26
2023-03-03T21:05:59.479Z,81.41
2023-03-03T21:08:53.276Z,82.42
2023-03-03T21:11:24.169Z,84.58
2023-03-03T21:13:54.286Z,84.20
2023-03-03T21:16:33.347Z,84.98
2023-03-03T21:19:03.309Z,85.82
2023-03-03T21:21:33.315Z,84.46
2023-03-03T21:24:01.086Z,83.15
2023-03-03T21:26:56.667Z,84.04
2023-03-03T21:29:27.070Z,84.17
2023-03-03T21:31:58.310Z,84.37
2023-03-03T21:34:29.339Z,84.51
2023-03-03T21:36:58.080Z,85.02
2023-03-03T21:39:30.907Z,84.04
2023-03-03T21:42:02.873Z,82.49
2023-03-03T21:44:33.573Z,83.33
2023-03-03T21:47:01.973Z,84.24
2023-03-03T21:49:30.186Z,83.05
2023-03-03T21:51:58.097Z,82.40
2023-03-03T21:54:25.988Z,82.44
2023-03-03T21:56:53.873Z,83.49
2023-03-03T21:59:23.132Z,83.72
2023-03-03T22:01:50.994Z,81.92
2023-03-03T22:04:18.977Z,83.38
2023-03-03T22:06:47.230Z,82.55
2023-03-03T22:09:15.207Z,84.77
2023-03-03T22:11:43.039Z,86.23
2023-03-03T22:14:10.988Z,84.97
2023-03-03T22:16:40.167Z,84.10
2023-03-03T22:19:10.147Z,84.05
2023-03-03T22:21:39.176Z,84.28
2023-03-03T22:24:08.795Z,83.49
2023-03-03T22:26:36.721Z,84.23
2023-03-03T22:29:05.500Z,81.97
2023-03-03T22:31:33.549Z,82.38
2023-03-03T22:34:02.803Z,81.78
2023-03-03T22:36:30.543Z,83.19
2023-03-03T22:38:58.312Z,82.84
2023-03-03T22:41:26.093Z,82.09
2023-03-03T22:43:53.856Z,82.00
2023-03-03T22:46:21.795Z,79.37
2023-03-03T22:48:49.635Z,81.53
2023-03-03T22:51:22.040Z,81.86
2023-03-03T22:53:49.954Z,80.55
2023-03-03T22:56:17.739Z,82.08
2023-03-03T22:58:45.520Z,82.99
2023-03-03T23:01:13.306Z,82.69
2023-03-03T23:03:41.113Z,82.91
2023-03-03T23:06:09.051Z,85.12
2023-03-03T23:08:38.214Z,85.45
2023-03-03T23:11:06.248Z,84.09
2023-03-03T23:13:35.180Z,81.95
2023-03-03T23:16:03.108Z,82.55
2023-03-03T23:18:30.915Z,82.60
2023-03-03T23:20:58.637Z,83.91
2023-03-03T23:23:26.406Z,84.66
2023-03-03T23:25:55.482Z,83.84
2023-03-03T23:28:23.220Z,83.73
2023-03-03T23:30:52.359Z,86.63
2023-03-03T23:33:20.379Z,85.56
2023-03-03T23:35:49.789Z,84.58
2023-03-03T23:38:17.901Z,83.95
2023-03-03T23:40:46.711Z,85.91
2023-03-03T23:43:16.356Z,86.81
2023-03-03T23:45:44.226Z,86.05
2023-03-03T23:48:12.496Z,86.00
2023-03-03T23:50:40.747Z,85.82
2023-03-03T23:53:09.079Z,84.04
2023-03-03T23:55:37.558Z,86.23
2023-03-03T23:58:06.466Z,86.47
